HomeShort term forecast

Short term forecast

Graphical weather forecast for the next 48 hours for Montreal:
Short term forecast
This weather forecast is automatically refreshed every 3 hours.

Hourly Experimental Forecast for the next 48 hours

Overall summary: Partly cloudy throughout the day and breezy starting tomorrow morning, continuing until tomorrow afternoon.

 Date & Hour   Temp   Feel   Baro   Hum   Speed & Bearing   Wind Gust   Precip.%   Precip.   Visibility   Cloud cover   Conditions 
 17/10/2018 - 04:00  7.6°C  5.3°C  1007.1 hPa  77%  12.8 km/h   38.4 km/h  13%  0.03 mm/h  16.1km  70%  Mostly Cloudy 
 17/10/2018 - 05:00  7.4°C  4.6°C  1006.6 hPa  79%  15.4 km/h   42.2 km/h  12%  0.02 mm/h  16.1km  66%  Mostly Cloudy 
 17/10/2018 - 06:00  6.8°C  3.8°C  1006.2 hPa  82%  16.1 km/h   42.2 km/h  21%  0.07 mm/h  16.1km  62%  Mostly Cloudy 
 17/10/2018 - 07:00  6.5°C  3.4°C  1006.0 hPa  81%  16.5 km/h   41.4 km/h  31%  0.13 mm/h  16.1km  66%  Mostly Cloudy 
 17/10/2018 - 08:00  6.3°C  3.1°C  1005.9 hPa  81%  16.9 km/h   40.5 km/h  34%  0.16 mm/h  16.0km  53%  Partly Cloudy 
 17/10/2018 - 09:00  7.2°C  3.9°C  1006.0 hPa  76%  19.8 km/h   43.8 km/h  29%  0.12 mm/h  16.1km  57%  Partly Cloudy 
 17/10/2018 - 10:00  7.7°C  4.1°C  1006.2 hPa  70%  23.9 km/h   44.5 km/h  12%  0.06 mm/h  16.1km  62%  Mostly Cloudy 
 17/10/2018 - 11:00  8.1°C  4.3°C  1006.4 hPa  66%  26.5 km/h   45.1 km/h  7%  0.02 mm/h  16.1km  59%  Breezy and Partly Cloudy 
 17/10/2018 - 12:00  7.9°C  4.1°C  1006.6 hPa  61%  27.4 km/h   42.9 km/h  6%  0.03 mm/h  16.1km  50%  Breezy and Partly Cloudy 
 17/10/2018 - 13:00  7.8°C  3.9°C  1006.8 hPa  56%  28.2 km/h   42.9 km/h  4%  0.01 mm/h  16.1km  49%  Breezy and Partly Cloudy 
 17/10/2018 - 14:00  7.4°C  3.4°C  1007.0 hPa  53%  28.6 km/h   41.7 km/h  0%  --  16.1km  53%  Breezy and Partly Cloudy 
 17/10/2018 - 15:00  7.0°C  2.9°C  1007.6 hPa  51%  27.9 km/h   41.8 km/h  5%  0.04 mm/h  16.1km  53%  Breezy and Partly Cloudy 
 17/10/2018 - 16:00  6.7°C  2.6°C  1008.2 hPa  50%  27.2 km/h   41.5 km/h  4%  0.01 mm/h  16.1km  61%  Breezy and Mostly Cloudy 
 17/10/2018 - 17:00  6.3°C  2.2°C  1008.8 hPa  50%  26.1 km/h   42.4 km/h  5%  0.03 mm/h  16.1km  56%  Partly Cloudy 
 17/10/2018 - 18:00  6.1°C  2.0°C  1009.7 hPa  50%  25.0 km/h   41.5 km/h  4%  0.01 mm/h  16.1km  52%  Partly Cloudy 
 17/10/2018 - 19:00  5.4°C  1.2°C  1010.7 hPa  50%  23.2 km/h   41.8 km/h  5%  0.02 mm/h  16.1km  47%  Partly Cloudy 
 17/10/2018 - 20:00  4.8°C  0.5°C  1011.7 hPa  51%  22.4 km/h   42.7 km/h  7%  0.02 mm/h  16.1km  58%  Partly Cloudy 
 17/10/2018 - 21:00  4.2°C  -0.4°C  1012.6 hPa  52%  23.2 km/h   44.6 km/h  6%  0.01 mm/h  16.1km  67%  Mostly Cloudy 
 17/10/2018 - 22:00  3.5°C  -1.3°C  1013.4 hPa  54%  24.3 km/h   47.0 km/h  0%  --  16.1km  65%  Mostly Cloudy 
 17/10/2018 - 23:00  3.0°C  -2.1°C  1014.3 hPa  55%  25.3 km/h   48.9 km/h  8%  0.02 mm/h  16.1km  46%  Breezy and Partly Cloudy 
 18/10/2018 - 00:00  2.3°C  -2.9°C  1015.1 hPa  56%  25.3 km/h   49.9 km/h  0%  --  16.1km  45%  Breezy and Partly Cloudy 
 18/10/2018 - 01:00  1.8°C  -3.6°C  1015.9 hPa  58%  25.1 km/h   50.3 km/h  0%  --  16.1km  56%  Breezy and Partly Cloudy 
 18/10/2018 - 02:00  1.4°C  -4.1°C  1016.7 hPa  58%  24.8 km/h   50.1 km/h  0%  --  16.1km  63%  Breezy and Mostly Cloudy 
 18/10/2018 - 03:00  0.9°C  -4.7°C  1017.4 hPa  59%  24.7 km/h   49.0 km/h  0%  --  16.1km  43%  Breezy and Partly Cloudy 
 18/10/2018 - 04:00  0.6°C  -5.1°C  1018.2 hPa  59%  24.4 km/h   47.2 km/h  0%  --  16.1km  18%  Breezy 
 18/10/2018 - 05:00  -0.1°C  -5.9°C  1019.1 hPa  61%  24.3 km/h   45.6 km/h  0%  --  16.1km  4%  Breezy 
 18/10/2018 - 06:00  -0.7°C  -6.7°C  1020.1 hPa  62%  24.0 km/h   44.7 km/h  0%  --  16.1km  0%  Clear 
 18/10/2018 - 07:00  -1.1°C  -7.1°C  1021.1 hPa  62%  23.4 km/h   44.0 km/h  0%  --  16.1km  0%  Clear 
 18/10/2018 - 08:00  -1.0°C  -7.0°C  1022.0 hPa  60%  24.0 km/h   43.0 km/h  0%  --  16.1km  10%  Clear 
 18/10/2018 - 09:00  -0.4°C  -6.4°C  1022.7 hPa  56%  25.4 km/h   41.3 km/h  0%  --  16.1km  15%  Breezy 
 18/10/2018 - 10:00  0.8°C  -4.9°C  1023.3 hPa  51%  25.7 km/h   39.3 km/h  0%  --  16.1km  6%  Breezy 
 18/10/2018 - 11:00  1.9°C  -3.6°C  1023.6 hPa  46%  26.4 km/h   37.8 km/h  5%  0.02 mm/h  16.1km  24%  Breezy 
 18/10/2018 - 12:00  2.8°C  -2.5°C  1023.6 hPa  42%  27.2 km/h   37.1 km/h  4%  0.01 mm/h  16.1km  25%  Breezy and Partly Cloudy 
 18/10/2018 - 13:00  3.6°C  -1.4°C  1023.6 hPa  39%  27.2 km/h   36.6 km/h  0%  --  16.1km  11%  Breezy 
 18/10/2018 - 14:00  4.2°C  -0.7°C  1023.4 hPa  37%  26.2 km/h   36.2 km/h  0%  --  16.1km  13%  Clear 
 18/10/2018 - 15:00  4.5°C  -0.2°C  1023.3 hPa  35%  26.0 km/h   35.2 km/h  0%  --  16.1km  27%  Partly Cloudy 
 18/10/2018 - 16:00  4.5°C  -0.2°C  1023.2 hPa  35%  25.1 km/h   34.2 km/h  0%  --  16.1km  24%  Clear 
 18/10/2018 - 17:00  4.3°C  -0.2°C  1023.2 hPa  36%  23.3 km/h   33.6 km/h  0%  --  16.1km  23%  Clear 
 18/10/2018 - 18:00  3.8°C  -0.5°C  1023.4 hPa  38%  20.3 km/h   34.2 km/h  0%  --  16.1km  0%  Clear 
 18/10/2018 - 19:00  3.0°C  -1.0°C  1023.7 hPa  41%  17.1 km/h   34.9 km/h  0%  --  16.1km  4%  Clear 
 18/10/2018 - 20:00  2.3°C  -1.5°C  1023.7 hPa  44%  14.2 km/h   33.9 km/h  0%  --  16.1km  16%  Clear 
 18/10/2018 - 21:00  1.8°C  -1.6°C  1023.8 hPa  46%  12.1 km/h   29.2 km/h  0%  --  16.1km  14%  Clear 
 18/10/2018 - 22:00  1.7°C  -1.4°C  1023.4 hPa  48%  10.7 km/h   22.8 km/h  0%  --  16.1km  47%  Partly Cloudy 
 18/10/2018 - 23:00  2.0°C  -0.9°C  1022.9 hPa  48%  10.1 km/h   19.8 km/h  0%  --  16.1km  70%  Mostly Cloudy 
 19/10/2018 - 00:00  2.2°C  -0.7°C  1022.3 hPa  49%  10.1 km/h   23.9 km/h  0%  --  16.1km  68%  Mostly Cloudy 
 19/10/2018 - 01:00  2.2°C  -0.8°C  1021.6 hPa  51%  10.5 km/h   31.5 km/h  0%  --  16.1km  80%  Mostly Cloudy 
 19/10/2018 - 02:00  2.4°C  -0.6°C  1020.8 hPa  54%  10.8 km/h   36.6 km/h  0%  --  16.1km  84%  Mostly Cloudy 
 19/10/2018 - 03:00  2.6°C  -0.5°C  1019.8 hPa  58%  11.2 km/h   36.1 km/h  0%  --  16.1km  87%  Mostly Cloudy 
Test

 

Past weather and reports

Past weatherFind in this section the past weather conditions, weather archive, graphics, reports and statistics.

Current conditions

Current weather condition for MontrealAll you need to know about the current weather conditions for Montreal. Weather data is updated every 10 minutes.

Weather forecast

Current Montreal weatherSince 2004, celinium.com website has provided accurate weather forecast for Montreal's island.